createdAt,value
2023-12-11T00:01:09.916Z,57.50
2023-12-11T00:03:36.619Z,56.17
2023-12-11T00:06:03.301Z,55.65
2023-12-11T00:08:29.893Z,51.22
2023-12-11T00:10:56.391Z,63.53
2023-12-11T00:13:23.000Z,70.47
2023-12-11T00:15:49.584Z,60.65
2023-12-11T00:18:16.260Z,59.17
2023-12-11T00:20:42.844Z,56.85
2023-12-11T00:23:09.344Z,62.03
2023-12-11T00:25:36.872Z,69.22
2023-12-11T00:28:03.419Z,67.40
2023-12-11T00:30:30.428Z,61.63
2023-12-11T00:32:56.981Z,80.78
2023-12-11T00:35:23.531Z,103.05
2023-12-11T00:37:50.049Z,56.38
2023-12-11T00:40:16.651Z,59.10
2023-12-11T00:42:43.210Z,64.57
2023-12-11T00:45:12.274Z,54.72
2023-12-11T00:47:38.767Z,58.75
2023-12-11T00:50:07.270Z,51.13
2023-12-11T00:52:34.066Z,53.85
2023-12-11T00:55:00.822Z,52.33
2023-12-11T00:57:27.602Z,66.78
2023-12-11T00:59:54.197Z,52.10
2023-12-11T01:02:20.729Z,51.05
2023-12-11T01:04:47.440Z,54.45
2023-12-11T01:07:14.090Z,51.65
2023-12-11T01:09:42.632Z,76.47
2023-12-11T01:12:09.217Z,54.53
2023-12-11T01:14:35.771Z,67.63
2023-12-11T01:17:36.028Z,63.50
2023-12-11T01:19:48.916Z,57.35
2023-12-11T01:22:15.497Z,78.07
2023-12-11T01:24:42.162Z,64.35
2023-12-11T01:27:08.730Z,68.05
2023-12-11T01:29:35.222Z,62.25
2023-12-11T01:32:01.725Z,65.38
2023-12-11T01:34:28.418Z,57.60
2023-12-11T01:36:55.080Z,62.85
2023-12-11T01:39:21.788Z,61.45
2023-12-11T01:41:48.290Z,54.70
2023-12-11T01:44:14.806Z,57.20
2023-12-11T01:46:41.345Z,72.78
2023-12-11T01:49:07.965Z,55.67
2023-12-11T01:51:34.769Z,58.50
2023-12-11T01:54:01.435Z,55.05
2023-12-11T01:56:28.133Z,61.13
2023-12-11T01:58:54.689Z,60.35
2023-12-11T02:01:23.012Z,72.20
2023-12-11T02:03:50.916Z,65.40
2023-12-11T02:06:17.960Z,67.15
2023-12-11T02:08:46.012Z,66.57
2023-12-11T02:11:12.891Z,64.22
2023-12-11T02:13:40.284Z,71.38
2023-12-11T02:16:07.279Z,71.15
2023-12-11T02:18:34.000Z,64.60
2023-12-11T02:21:00.624Z,66.32
2023-12-11T02:23:30.990Z,83.22
2023-12-11T02:26:14.172Z,65.90
2023-12-11T02:28:40.872Z,62.58
2023-12-11T02:31:07.434Z,61.35
2023-12-11T02:33:34.050Z,60.78
2023-12-11T02:36:00.586Z,59.22
2023-12-11T02:38:27.204Z,66.35
2023-12-11T02:40:53.836Z,64.13
2023-12-11T02:43:20.378Z,66.60
2023-12-11T02:45:47.045Z,80.55
2023-12-11T02:48:13.778Z,77.78
2023-12-11T02:50:40.339Z,58.50
2023-12-11T02:53:06.837Z,55.92
2023-12-11T02:55:33.432Z,65.97
2023-12-11T02:58:00.871Z,57.03
2023-12-11T03:00:27.940Z,54.60
2023-12-11T03:02:54.630Z,62.55
2023-12-11T03:05:21.225Z,61.05
2023-12-11T03:07:47.730Z,62.90
2023-12-11T03:10:14.311Z,55.22
2023-12-11T03:12:41.080Z,60.00
2023-12-11T03:15:08.447Z,66.28
2023-12-11T03:17:35.088Z,68.35
2023-12-11T03:20:01.855Z,64.38
2023-12-11T03:22:28.888Z,56.80
2023-12-11T03:24:56.004Z,59.78
2023-12-11T03:27:22.721Z,52.72
2023-12-11T03:29:49.725Z,62.97
2023-12-11T03:32:16.291Z,56.67
2023-12-11T03:34:42.837Z,67.70
2023-12-11T03:37:10.766Z,70.38
2023-12-11T03:39:37.366Z,59.92
2023-12-11T03:42:03.930Z,66.68
2023-12-11T03:44:30.568Z,67.47
2023-12-11T03:46:57.077Z,63.08
2023-12-11T03:49:23.837Z,64.47
2023-12-11T03:51:50.468Z,62.15
2023-12-11T03:54:17.446Z,53.35
2023-12-11T03:56:44.069Z,61.35
2023-12-11T03:59:12.364Z,51.03
2023-12-11T04:01:39.655Z,60.75
2023-12-11T04:04:06.317Z,66.65
2023-12-11T04:06:32.869Z,52.75
2023-12-11T04:08:59.448Z,49.50
2023-12-11T04:11:25.964Z,47.95
2023-12-11T04:13:52.451Z,46.83
2023-12-11T04:16:18.950Z,47.95
2023-12-11T04:18:45.602Z,42.40
2023-12-11T04:21:12.167Z,41.20
2023-12-11T04:23:38.708Z,44.58
2023-12-11T04:26:05.203Z,51.53
2023-12-11T04:28:31.703Z,41.15
2023-12-11T04:30:58.323Z,48.15
2023-12-11T04:33:25.089Z,43.45
2023-12-11T04:35:51.649Z,38.13
2023-12-11T04:38:18.115Z,48.42
2023-12-11T04:40:44.797Z,50.45
2023-12-11T04:43:11.422Z,52.42
2023-12-11T04:45:37.910Z,57.92
2023-12-11T04:48:04.705Z,57.45
2023-12-11T04:50:31.268Z,56.60
2023-12-11T04:52:57.792Z,77.63
2023-12-11T04:55:24.722Z,60.35
2023-12-11T04:57:51.409Z,59.88
2023-12-11T05:00:18.686Z,51.45
2023-12-11T05:02:45.318Z,64.60
2023-12-11T05:05:11.988Z,64.55
2023-12-11T05:07:38.499Z,76.28
2023-12-11T05:10:05.221Z,63.60
2023-12-11T05:12:31.855Z,60.58
2023-12-11T05:14:58.724Z,60.70
2023-12-11T05:17:25.416Z,55.13
2023-12-11T05:19:52.093Z,59.03
2023-12-11T05:22:19.718Z,65.25
2023-12-11T05:24:46.364Z,71.63
2023-12-11T05:27:13.237Z,68.90
2023-12-11T05:29:39.835Z,70.18
2023-12-11T05:32:06.445Z,71.53
2023-12-11T05:34:33.033Z,80.40
2023-12-11T05:36:59.685Z,72.93
2023-12-11T05:39:26.251Z,74.03
2023-12-11T05:41:52.958Z,66.78
2023-12-11T05:44:19.624Z,70.32
2023-12-11T05:46:46.154Z,69.78
2023-12-11T05:49:12.732Z,74.50
2023-12-11T05:51:39.364Z,68.88
2023-12-11T05:54:05.904Z,54.70
2023-12-11T05:56:32.531Z,75.03
2023-12-11T05:58:59.567Z,73.78
2023-12-11T06:01:27.359Z,61.47
2023-12-11T06:03:53.909Z,64.15
2023-12-11T06:06:20.407Z,69.18
2023-12-11T06:08:47.340Z,56.60
2023-12-11T06:11:13.814Z,72.50
2023-12-11T06:13:40.303Z,70.18
2023-12-11T06:16:07.036Z,76.15
2023-12-11T06:18:33.681Z,75.93
2023-12-11T06:21:02.697Z,83.90
2023-12-11T06:23:31.445Z,71.50
2023-12-11T06:25:57.924Z,84.55
2023-12-11T06:28:24.581Z,98.65
2023-12-11T06:30:51.157Z,131.90
2023-12-11T06:33:17.703Z,131.00
2023-12-11T06:35:44.218Z,68.75
2023-12-11T06:38:10.754Z,70.78
2023-12-11T06:40:37.215Z,75.65
2023-12-11T06:43:04.157Z,50.58
2023-12-11T06:45:33.967Z,44.47
2023-12-11T06:48:02.610Z,58.58
2023-12-11T06:50:29.196Z,60.47
2023-12-11T06:52:55.893Z,69.60
2023-12-11T06:55:22.459Z,56.50
2023-12-11T06:57:49.217Z,60.85
2023-12-11T07:00:15.825Z,62.42
2023-12-11T07:02:42.542Z,82.60
2023-12-11T07:05:09.549Z,69.15
2023-12-11T07:07:36.440Z,74.82
2023-12-11T07:10:05.082Z,53.00
2023-12-11T07:12:32.057Z,58.50
2023-12-11T07:14:58.571Z,54.10
2023-12-11T07:17:25.134Z,57.42
2023-12-11T07:19:53.124Z,62.17
2023-12-11T07:22:19.810Z,59.47
2023-12-11T07:24:46.602Z,55.35
2023-12-11T07:27:13.179Z,57.28
2023-12-11T07:29:39.813Z,58.33
2023-12-11T07:32:06.978Z,66.78
2023-12-11T07:34:33.695Z,58.78
2023-12-11T07:37:00.383Z,60.30
2023-12-11T07:39:26.913Z,61.03
2023-12-11T07:41:55.792Z,51.78
2023-12-11T07:44:22.537Z,55.03
2023-12-11T07:46:49.000Z,60.95
2023-12-11T07:49:15.674Z,48.30
2023-12-11T07:51:42.662Z,45.83
2023-12-11T07:54:09.567Z,54.10
2023-12-11T07:56:38.190Z,56.15
2023-12-11T07:59:04.975Z,46.08
2023-12-11T08:01:34.469Z,40.70
2023-12-11T08:04:01.208Z,57.15
2023-12-11T08:06:27.865Z,53.15
2023-12-11T08:08:54.381Z,67.07
2023-12-11T08:11:30.590Z,49.15
2023-12-11T08:13:57.137Z,45.78
2023-12-11T08:16:24.820Z,41.63
2023-12-11T08:18:51.509Z,32.35
2023-12-11T08:21:18.127Z,30.63
2023-12-11T08:23:45.283Z,28.60
2023-12-11T08:26:12.509Z,36.20
2023-12-11T08:28:39.147Z,32.42
2023-12-11T08:31:05.817Z,31.00
2023-12-11T08:33:32.396Z,31.08
2023-12-11T08:36:03.391Z,29.42
2023-12-11T08:38:29.952Z,18.33
2023-12-11T08:40:56.619Z,15.35
2023-12-11T08:43:23.132Z,17.83
2023-12-11T08:45:49.762Z,20.38
2023-12-11T08:48:16.667Z,15.93
2023-12-11T08:50:43.344Z,20.38
2023-12-11T08:53:10.058Z,26.98
2023-12-11T08:55:36.966Z,14.70
2023-12-11T08:58:04.211Z,21.05
2023-12-11T09:00:30.760Z,18.98
2023-12-11T09:02:57.265Z,32.47
2023-12-11T09:05:24.063Z,37.28
2023-12-11T09:07:50.657Z,37.10
2023-12-11T09:10:17.206Z,40.40
2023-12-11T09:12:43.853Z,31.83
2023-12-11T09:15:10.619Z,26.08
2023-12-11T09:17:37.540Z,21.55
2023-12-11T09:20:05.694Z,22.85
2023-12-11T09:22:32.420Z,27.55
2023-12-11T09:24:59.128Z,21.98
2023-12-11T09:27:25.661Z,28.40
2023-12-11T09:29:52.304Z,30.73
2023-12-11T09:32:18.839Z,37.17
2023-12-11T09:34:45.866Z,38.70
2023-12-11T09:37:12.501Z,39.95
2023-12-11T09:39:42.046Z,43.28
2023-12-11T09:42:09.166Z,37.72
2023-12-11T09:44:36.143Z,35.38
2023-12-11T09:47:06.959Z,34.42
2023-12-11T09:49:35.270Z,28.53
2023-12-11T09:52:02.399Z,33.15
2023-12-11T09:54:28.947Z,27.98
2023-12-11T09:56:55.704Z,29.83
2023-12-11T09:59:22.716Z,27.52
2023-12-11T10:01:49.752Z,28.00
2023-12-11T10:04:16.400Z,22.13
2023-12-11T10:06:42.963Z,17.52
2023-12-11T10:09:14.057Z,21.55
2023-12-11T10:11:40.536Z,18.60
2023-12-11T10:14:13.318Z,29.17
2023-12-11T10:16:39.872Z,19.05
2023-12-11T10:19:06.690Z,18.27
2023-12-11T10:21:40.171Z,14.25
2023-12-11T10:24:07.998Z,13.85
2023-12-11T10:26:37.379Z,13.68
2023-12-11T10:29:20.098Z,12.30
2023-12-11T10:31:47.110Z,18.13
2023-12-11T10:34:13.782Z,25.85
2023-12-11T10:36:50.342Z,22.00
2023-12-11T10:39:17.275Z,21.80
2023-12-11T10:41:47.035Z,29.17
2023-12-11T10:44:43.296Z,19.05
2023-12-11T10:47:14.127Z,20.65
2023-12-11T10:49:41.231Z,31.55
2023-12-11T10:52:08.261Z,21.80
2023-12-11T10:54:43.292Z,30.30
2023-12-11T10:57:18.244Z,35.58
2023-12-11T10:59:45.717Z,39.50
2023-12-11T11:02:14.578Z,26.92
2023-12-11T11:04:42.615Z,36.67
2023-12-11T11:07:21.256Z,40.83
2023-12-11T11:09:47.870Z,40.40
2023-12-11T11:12:17.756Z,28.65
2023-12-11T11:14:48.750Z,25.80
2023-12-11T11:17:17.481Z,30.15
2023-12-11T11:20:02.673Z,30.85
2023-12-11T11:22:35.943Z,34.72
2023-12-11T11:25:30.210Z,27.42
2023-12-11T11:27:56.891Z,33.88
2023-12-11T11:30:42.068Z,32.25
2023-12-11T11:33:11.798Z,29.52
2023-12-11T11:35:45.177Z,32.60
2023-12-11T11:38:11.752Z,35.08
2023-12-11T11:40:38.410Z,34.83
2023-12-11T11:43:08.629Z,28.23
2023-12-11T11:45:35.214Z,26.23
2023-12-11T11:48:03.049Z,28.08
2023-12-11T11:50:30.578Z,28.08
2023-12-11T11:53:07.770Z,43.22
2023-12-11T11:55:36.195Z,25.52
2023-12-11T11:58:11.100Z,20.98
2023-12-11T12:00:37.571Z,19.88
2023-12-11T12:03:09.811Z,34.65
2023-12-11T12:05:38.032Z,32.30
2023-12-11T12:08:08.694Z,33.28
2023-12-11T12:10:36.019Z,25.98
2023-12-11T12:13:03.034Z,29.92
2023-12-11T12:15:29.566Z,29.67
2023-12-11T12:18:08.784Z,29.23
2023-12-11T12:20:35.584Z,27.02
2023-12-11T12:23:02.832Z,22.95
2023-12-11T12:25:29.854Z,20.98
2023-12-11T12:27:59.015Z,23.70
2023-12-11T12:30:25.840Z,34.80
2023-12-11T12:32:53.305Z,21.73
2023-12-11T12:35:20.598Z,22.17
2023-12-11T12:37:48.739Z,14.35
2023-12-11T12:40:15.483Z,22.50
2023-12-11T12:42:42.181Z,17.88
2023-12-11T12:45:09.137Z,17.65
2023-12-11T12:47:45.120Z,15.63
2023-12-11T12:50:24.216Z,21.17
2023-12-11T12:52:50.883Z,27.52
2023-12-11T12:55:17.416Z,25.55
2023-12-11T12:57:44.884Z,22.25
2023-12-11T13:00:19.299Z,27.05
2023-12-11T13:02:49.794Z,29.10
2023-12-11T13:05:16.431Z,30.45
2023-12-11T13:07:45.447Z,31.38
2023-12-11T13:10:12.432Z,33.13
2023-12-11T13:12:39.163Z,30.23
2023-12-11T13:15:07.884Z,25.80
2023-12-11T13:17:35.214Z,32.83
2023-12-11T13:20:02.851Z,34.80
2023-12-11T13:22:29.435Z,32.72
2023-12-11T13:24:55.949Z,36.22
2023-12-11T13:27:27.121Z,30.13
2023-12-11T13:29:53.975Z,31.60
2023-12-11T13:32:20.695Z,30.55
2023-12-11T13:34:47.241Z,28.55
2023-12-11T13:37:13.968Z,22.02
2023-12-11T13:39:40.580Z,27.55
2023-12-11T13:42:07.174Z,27.10
2023-12-11T13:44:33.683Z,28.73
2023-12-11T13:47:00.399Z,27.85
2023-12-11T13:49:27.021Z,20.75
2023-12-11T13:51:53.656Z,18.48
2023-12-11T13:54:20.132Z,23.88
2023-12-11T13:56:48.989Z,22.10
2023-12-11T13:59:15.683Z,29.75
2023-12-11T14:01:42.208Z,31.17
2023-12-11T14:04:08.934Z,27.50
2023-12-11T14:06:35.591Z,34.95
2023-12-11T14:09:04.653Z,38.65
2023-12-11T14:11:31.145Z,42.72
2023-12-11T14:13:57.662Z,53.50
2023-12-11T14:16:24.150Z,47.03
2023-12-11T14:18:50.735Z,43.85
2023-12-11T14:21:18.726Z,38.80
2023-12-11T14:23:45.327Z,46.90
2023-12-11T14:26:11.818Z,46.47
2023-12-11T14:28:38.342Z,36.35
2023-12-11T14:31:09.672Z,39.83
2023-12-11T14:33:36.651Z,39.08
2023-12-11T14:36:09.506Z,36.80
2023-12-11T14:38:41.346Z,45.58
2023-12-11T14:41:08.009Z,35.67
2023-12-11T14:43:34.537Z,38.58
2023-12-11T14:46:01.295Z,40.60
2023-12-11T14:48:27.891Z,34.28
2023-12-11T14:50:55.633Z,26.45
2023-12-11T14:53:22.149Z,25.77
2023-12-11T14:55:48.691Z,35.40
2023-12-11T14:58:15.309Z,31.95
2023-12-11T15:00:42.622Z,22.60
2023-12-11T15:03:09.250Z,24.67
2023-12-11T15:05:35.713Z,24.67
2023-12-11T15:08:02.201Z,33.92
2023-12-11T15:10:28.784Z,37.90
2023-12-11T15:12:56.797Z,25.60
2023-12-11T15:15:23.704Z,23.58
2023-12-11T15:17:50.231Z,43.17
2023-12-11T15:20:17.353Z,30.60
2023-12-11T15:22:44.107Z,26.30
2023-12-11T15:25:10.892Z,30.48
2023-12-11T15:27:37.717Z,28.05
2023-12-11T15:30:06.109Z,22.05
2023-12-11T15:32:32.725Z,39.42
2023-12-11T15:34:59.272Z,25.98
2023-12-11T15:37:25.891Z,41.15
2023-12-11T15:39:52.424Z,25.73
2023-12-11T15:42:20.690Z,29.27
2023-12-11T15:44:47.410Z,31.00
2023-12-11T15:47:13.944Z,26.75
2023-12-11T15:49:40.484Z,31.58
2023-12-11T15:52:07.698Z,36.90
2023-12-11T15:54:34.620Z,53.53
2023-12-11T15:57:01.341Z,38.40
2023-12-11T15:59:28.700Z,33.13
2023-12-11T16:01:55.221Z,29.38
2023-12-11T16:04:21.856Z,39.83
2023-12-11T16:06:48.421Z,41.13
2023-12-11T16:09:15.355Z,39.30
2023-12-11T16:11:41.803Z,40.35
2023-12-11T16:14:08.281Z,31.45
2023-12-11T16:16:34.865Z,33.25
2023-12-11T16:19:02.103Z,33.15
2023-12-11T16:21:28.812Z,41.35
2023-12-11T16:23:55.330Z,38.97
2023-12-11T16:26:22.043Z,18.88
2023-12-11T16:28:48.599Z,16.75
2023-12-11T16:31:24.234Z,14.45
2023-12-11T16:33:51.097Z,16.95
2023-12-11T16:36:17.838Z,21.30
2023-12-11T16:38:44.383Z,18.02
2023-12-11T16:41:11.117Z,17.90
2023-12-11T16:43:48.270Z,16.92
2023-12-11T16:46:17.954Z,30.63
2023-12-11T16:48:44.765Z,17.58
2023-12-11T16:51:11.330Z,21.05
2023-12-11T16:53:38.294Z,17.77
2023-12-11T16:56:04.921Z,15.88
2023-12-11T16:58:32.720Z,18.10
2023-12-11T17:00:59.226Z,20.00
2023-12-11T17:03:25.801Z,19.63
2023-12-11T17:05:52.308Z,29.17
2023-12-11T17:08:18.816Z,24.50
2023-12-11T17:10:45.286Z,20.75
2023-12-11T17:13:12.331Z,20.23
2023-12-11T17:15:38.873Z,19.67
2023-12-11T17:18:05.897Z,17.88
2023-12-11T17:20:32.563Z,17.10
2023-12-11T17:22:59.021Z,19.42
2023-12-11T17:25:25.577Z,26.45
2023-12-11T17:27:52.199Z,23.13
2023-12-11T17:30:19.145Z,23.83
2023-12-11T17:32:45.700Z,18.95
2023-12-11T17:35:12.717Z,17.73
2023-12-11T17:37:39.427Z,18.67
2023-12-11T17:40:07.824Z,17.58
2023-12-11T17:42:34.608Z,21.65
2023-12-11T17:45:02.091Z,16.55
2023-12-11T17:47:28.703Z,15.88
2023-12-11T17:49:55.196Z,17.17
2023-12-11T17:52:21.714Z,18.90
2023-12-11T17:54:50.069Z,17.75
2023-12-11T17:57:16.787Z,15.38
2023-12-11T17:59:43.668Z,12.75
2023-12-11T18:02:11.152Z,11.57
2023-12-11T18:04:39.738Z,12.82
2023-12-11T18:07:06.638Z,16.35
2023-12-11T18:09:37.274Z,19.95
2023-12-11T18:12:04.379Z,20.45
2023-12-11T18:14:30.853Z,15.75
2023-12-11T18:16:57.335Z,18.20
2023-12-11T18:21:50.784Z,21.73
2023-12-11T18:24:17.385Z,24.60
2023-12-11T18:26:44.827Z,17.00
2023-12-11T18:29:11.537Z,14.50
2023-12-11T18:31:41.807Z,66.68
2023-12-11T18:34:08.668Z,86.60
2023-12-11T18:36:41.975Z,72.82
2023-12-11T18:41:34.894Z,38.78
2023-12-11T18:44:01.379Z,31.15
2023-12-11T18:46:27.959Z,39.72
2023-12-11T18:48:58.153Z,32.53
2023-12-11T18:51:25.467Z,43.92
2023-12-11T18:53:52.043Z,28.88
2023-12-11T18:56:23.337Z,18.60
2023-12-11T18:58:50.208Z,20.33
2023-12-11T19:01:17.074Z,15.68
2023-12-11T19:03:44.140Z,12.30
2023-12-11T19:06:10.752Z,17.02
2023-12-11T19:08:37.591Z,14.65
2023-12-11T19:11:05.976Z,17.80
2023-12-11T19:13:32.943Z,16.88
2023-12-11T19:16:00.577Z,29.75
2023-12-11T19:18:27.796Z,25.35
2023-12-11T19:20:54.420Z,29.45
2023-12-11T19:23:20.954Z,31.80
2023-12-11T19:25:47.438Z,36.25
2023-12-11T19:28:14.063Z,29.50
2023-12-11T19:30:40.682Z,30.63
2023-12-11T19:33:07.459Z,36.40
2023-12-11T19:35:34.673Z,45.25
2023-12-11T19:38:01.213Z,30.30
2023-12-11T19:40:27.738Z,37.92
2023-12-11T19:42:54.344Z,34.15
2023-12-11T19:45:20.893Z,30.50
2023-12-11T19:47:47.436Z,37.38
2023-12-11T19:50:13.971Z,38.63
2023-12-11T19:52:50.377Z,27.90
2023-12-11T19:55:18.115Z,42.58
2023-12-11T19:57:44.723Z,44.83
2023-12-11T20:00:11.473Z,34.58
2023-12-11T20:02:38.040Z,29.67
2023-12-11T20:05:05.135Z,35.45
2023-12-11T20:07:34.687Z,53.63
2023-12-11T20:10:02.452Z,28.83
2023-12-11T20:12:34.577Z,28.83
2023-12-11T20:15:01.527Z,33.05
2023-12-11T20:17:28.088Z,28.15
2023-12-11T20:19:57.589Z,41.83
2023-12-11T20:22:24.216Z,30.30
2023-12-11T20:24:50.820Z,28.77
2023-12-11T20:27:17.319Z,32.15
2023-12-11T20:29:43.768Z,39.67
2023-12-11T20:32:10.218Z,25.83
2023-12-11T20:34:37.888Z,32.33
2023-12-11T20:37:04.619Z,24.95
2023-12-11T20:39:31.213Z,19.60
2023-12-11T20:41:57.741Z,30.00
2023-12-11T20:44:24.175Z,24.77
2023-12-11T20:46:50.654Z,36.58
2023-12-11T20:49:17.421Z,34.60
2023-12-11T20:51:43.952Z,33.53
2023-12-11T20:54:11.921Z,31.83
2023-12-11T20:56:38.411Z,29.50
2023-12-11T20:59:04.936Z,37.50
2023-12-11T21:01:32.752Z,36.15
2023-12-11T21:04:00.788Z,32.13
2023-12-11T21:06:28.048Z,28.15
2023-12-11T21:08:56.333Z,34.15
2023-12-11T21:11:23.488Z,33.53
2023-12-11T21:13:50.035Z,40.17
2023-12-11T21:16:16.840Z,37.47
2023-12-11T21:18:43.792Z,36.60
2023-12-11T21:21:15.500Z,39.22
2023-12-11T21:23:44.494Z,42.85
2023-12-11T21:26:18.004Z,42.97
2023-12-11T21:28:45.253Z,39.40
2023-12-11T21:31:22.765Z,42.40
2023-12-11T21:33:53.450Z,41.20
2023-12-11T21:36:21.184Z,44.47
2023-12-11T21:38:47.843Z,49.72
2023-12-11T21:41:14.714Z,44.67
2023-12-11T21:43:42.041Z,47.72
2023-12-11T21:46:08.538Z,38.03
2023-12-11T21:48:35.401Z,32.03
2023-12-11T21:51:02.041Z,38.10
2023-12-11T21:53:28.539Z,44.72
2023-12-11T21:55:55.115Z,41.00
2023-12-11T21:58:21.646Z,43.55
2023-12-11T22:00:48.352Z,41.85
2023-12-11T22:03:14.990Z,38.13
2023-12-11T22:05:41.545Z,35.25
2023-12-11T22:08:08.587Z,37.15
2023-12-11T22:10:35.572Z,29.33
2023-12-11T22:13:02.126Z,30.23
2023-12-11T22:15:28.626Z,33.83
2023-12-11T22:17:55.586Z,24.98
2023-12-11T22:20:22.112Z,34.55
2023-12-11T22:22:54.560Z,29.40
2023-12-11T22:25:21.116Z,32.85
2023-12-11T22:27:49.050Z,35.50
2023-12-11T22:30:15.850Z,37.25
2023-12-11T22:32:42.373Z,33.00
2023-12-11T22:35:08.897Z,40.95
2023-12-11T22:37:36.104Z,38.55
2023-12-11T22:40:02.947Z,34.47
2023-12-11T22:42:29.477Z,35.58
2023-12-11T22:44:56.029Z,41.80
2023-12-11T22:47:22.518Z,39.33
2023-12-11T22:49:49.141Z,33.15
2023-12-11T22:52:15.688Z,39.20
2023-12-11T22:54:42.214Z,42.55
2023-12-11T22:57:08.712Z,34.47
2023-12-11T22:59:35.207Z,46.53
2023-12-11T23:02:04.254Z,34.63
2023-12-11T23:04:31.232Z,38.05
2023-12-11T23:06:57.802Z,36.70
2023-12-11T23:09:24.275Z,35.05
2023-12-11T23:11:50.783Z,36.63
2023-12-11T23:14:18.330Z,31.23
2023-12-11T23:16:44.785Z,36.63
2023-12-11T23:19:12.006Z,27.27
2023-12-11T23:21:41.734Z,35.08
2023-12-11T23:24:08.701Z,33.60
2023-12-11T23:26:35.228Z,28.20
2023-12-11T23:29:01.791Z,35.03
2023-12-11T23:31:28.366Z,40.05
2023-12-11T23:33:55.020Z,45.85
2023-12-11T23:36:21.593Z,37.42
2023-12-11T23:38:48.076Z,41.53
2023-12-11T23:41:15.349Z,33.63
2023-12-11T23:43:41.979Z,46.38
2023-12-11T23:46:08.544Z,45.08
2023-12-11T23:48:35.063Z,35.78
2023-12-11T23:51:01.685Z,37.67
2023-12-11T23:53:28.202Z,39.63
2023-12-11T23:55:54.981Z,37.22
2023-12-11T23:58:21.574Z,44.38
